sensor_id;sensor_type;location;lat;lon;timestamp;P1;durP1;ratioP1;P2;durP2;ratioP2
16101;SDS011;56411;52.964;10.540;2023-12-20T00:02:09;13.17;;;4.20;;
16101;SDS011;56411;52.964;10.540;2023-12-20T00:04:36;11.67;;;3.97;;
16101;SDS011;56411;52.964;10.540;2023-12-20T00:07:04;14.30;;;3.80;;
16101;SDS011;56411;52.964;10.540;2023-12-20T00:09:31;14.70;;;3.90;;
16101;SDS011;56411;52.964;10.540;2023-12-20T00:11:58;15.77;;;4.30;;
16101;SDS011;56411;52.964;10.540;2023-12-20T00:14:25;13.93;;;3.40;;
16101;SDS011;56411;52.964;10.540;2023-12-20T00:16:53;10.73;;;3.70;;
16101;SDS011;56411;52.964;10.540;2023-12-20T00:19:20;13.63;;;3.80;;
16101;SDS011;56411;52.964;10.540;2023-12-20T00:21:47;15.97;;;3.87;;
16101;SDS011;56411;52.964;10.540;2023-12-20T00:24:15;14.37;;;3.97;;
16101;SDS011;56411;52.964;10.540;2023-12-20T00:26:42;16.00;;;4.43;;
16101;SDS011;56411;52.964;10.540;2023-12-20T00:29:09;14.37;;;3.80;;
16101;SDS011;56411;52.964;10.540;2023-12-20T00:31:36;17.70;;;4.30;;
16101;SDS011;56411;52.964;10.540;2023-12-20T00:34:04;16.83;;;4.27;;
16101;SDS011;56411;52.964;10.540;2023-12-20T00:36:31;13.80;;;3.73;;
16101;SDS011;56411;52.964;10.540;2023-12-20T00:38:59;17.70;;;4.20;;
16101;SDS011;56411;52.964;10.540;2023-12-20T00:41:26;16.27;;;4.27;;
16101;SDS011;56411;52.964;10.540;2023-12-20T00:43:53;11.83;;;3.70;;
16101;SDS011;56411;52.964;10.540;2023-12-20T00:46:20;14.90;;;4.23;;
16101;SDS011;56411;52.964;10.540;2023-12-20T00:48:47;17.53;;;3.83;;
16101;SDS011;56411;52.964;10.540;2023-12-20T00:51:16;16.73;;;3.67;;
16101;SDS011;56411;52.964;10.540;2023-12-20T00:53:43;11.77;;;3.70;;
16101;SDS011;56411;52.964;10.540;2023-12-20T00:56:11;14.60;;;3.40;;
16101;SDS011;56411;52.964;10.540;2023-12-20T00:58:38;15.00;;;3.80;;
16101;SDS011;56411;52.964;10.540;2023-12-20T01:01:05;17.77;;;3.50;;
16101;SDS011;56411;52.964;10.540;2023-12-20T01:03:32;17.57;;;3.70;;
16101;SDS011;56411;52.964;10.540;2023-12-20T01:09:22;17.20;;;3.73;;
16101;SDS011;56411;52.964;10.540;2023-12-20T01:11:51;15.83;;;3.40;;
16101;SDS011;56411;52.964;10.540;2023-12-20T01:14:18;14.87;;;4.00;;
16101;SDS011;56411;52.964;10.540;2023-12-20T01:16:45;16.77;;;4.00;;
16101;SDS011;56411;52.964;10.540;2023-12-20T01:19:13;20.13;;;4.60;;
16101;SDS011;56411;52.964;10.540;2023-12-20T01:21:40;16.83;;;4.47;;
16101;SDS011;56411;52.964;10.540;2023-12-20T01:24:07;17.23;;;4.33;;
16101;SDS011;56411;52.964;10.540;2023-12-20T01:26:35;20.87;;;4.80;;
16101;SDS011;56411;52.964;10.540;2023-12-20T01:29:02;19.20;;;5.13;;
16101;SDS011;56411;52.964;10.540;2023-12-20T01:31:30;24.17;;;5.30;;
16101;SDS011;56411;52.964;10.540;2023-12-20T01:33:57;20.03;;;5.20;;
16101;SDS011;56411;52.964;10.540;2023-12-20T01:36:24;19.13;;;4.90;;
16101;SDS011;56411;52.964;10.540;2023-12-20T01:38:51;16.17;;;4.93;;
16101;SDS011;56411;52.964;10.540;2023-12-20T01:41:18;21.37;;;5.80;;
16101;SDS011;56411;52.964;10.540;2023-12-20T01:43:47;21.03;;;5.93;;
16101;SDS011;56411;52.964;10.540;2023-12-20T01:46:14;22.67;;;6.97;;
16101;SDS011;56411;52.964;10.540;2023-12-20T01:48:41;20.53;;;5.90;;
16101;SDS011;56411;52.964;10.540;2023-12-20T01:51:09;27.13;;;5.97;;
16101;SDS011;56411;52.964;10.540;2023-12-20T01:53:37;25.47;;;5.90;;
16101;SDS011;56411;52.964;10.540;2023-12-20T01:56:06;20.87;;;5.57;;
16101;SDS011;56411;52.964;10.540;2023-12-20T01:58:34;20.80;;;6.00;;
16101;SDS011;56411;52.964;10.540;2023-12-20T02:01:05;22.43;;;6.50;;
16101;SDS011;56411;52.964;10.540;2023-12-20T02:03:32;23.90;;;6.23;;
16101;SDS011;56411;52.964;10.540;2023-12-20T02:06:01;27.33;;;7.23;;
16101;SDS011;56411;52.964;10.540;2023-12-20T02:08:29;22.03;;;6.60;;
16101;SDS011;56411;52.964;10.540;2023-12-20T02:10:56;22.33;;;5.97;;
16101;SDS011;56411;52.964;10.540;2023-12-20T02:13:23;26.47;;;7.47;;
16101;SDS011;56411;52.964;10.540;2023-12-20T02:15:51;19.77;;;6.17;;
16101;SDS011;56411;52.964;10.540;2023-12-20T02:18:20;23.57;;;6.40;;
16101;SDS011;56411;52.964;10.540;2023-12-20T02:20:47;21.43;;;6.07;;
16101;SDS011;56411;52.964;10.540;2023-12-20T02:23:16;17.87;;;5.77;;
16101;SDS011;56411;52.964;10.540;2023-12-20T02:25:43;28.00;;;6.77;;
16101;SDS011;56411;52.964;10.540;2023-12-20T02:28:10;18.83;;;5.90;;
16101;SDS011;56411;52.964;10.540;2023-12-20T02:30:37;18.67;;;5.17;;
16101;SDS011;56411;52.964;10.540;2023-12-20T02:33:04;23.60;;;5.50;;
16101;SDS011;56411;52.964;10.540;2023-12-20T02:35:36;26.40;;;6.40;;
16101;SDS011;56411;52.964;10.540;2023-12-20T02:38:03;19.03;;;5.63;;
16101;SDS011;56411;52.964;10.540;2023-12-20T02:40:32;20.80;;;5.07;;
16101;SDS011;56411;52.964;10.540;2023-12-20T02:42:59;17.73;;;6.30;;
16101;SDS011;56411;52.964;10.540;2023-12-20T02:45:26;18.77;;;5.27;;
16101;SDS011;56411;52.964;10.540;2023-12-20T02:47:53;23.67;;;5.47;;
16101;SDS011;56411;52.964;10.540;2023-12-20T02:50:20;20.40;;;5.47;;
16101;SDS011;56411;52.964;10.540;2023-12-20T02:52:48;21.60;;;5.17;;
16101;SDS011;56411;52.964;10.540;2023-12-20T02:55:15;20.13;;;5.30;;
16101;SDS011;56411;52.964;10.540;2023-12-20T02:57:43;21.47;;;5.73;;
16101;SDS011;56411;52.964;10.540;2023-12-20T03:00:11;20.77;;;5.07;;
16101;SDS011;56411;52.964;10.540;2023-12-20T03:02:38;19.03;;;5.30;;
16101;SDS011;56411;52.964;10.540;2023-12-20T03:05:05;20.73;;;5.90;;
16101;SDS011;56411;52.964;10.540;2023-12-20T03:07:33;21.37;;;5.30;;
16101;SDS011;56411;52.964;10.540;2023-12-20T03:10:00;20.43;;;5.03;;
16101;SDS011;56411;52.964;10.540;2023-12-20T03:12:28;20.93;;;5.27;;
16101;SDS011;56411;52.964;10.540;2023-12-20T03:14:56;21.83;;;4.73;;
16101;SDS011;56411;52.964;10.540;2023-12-20T03:17:23;23.77;;;5.07;;
16101;SDS011;56411;52.964;10.540;2023-12-20T03:19:50;18.10;;;4.53;;
16101;SDS011;56411;52.964;10.540;2023-12-20T03:22:17;17.97;;;4.70;;
16101;SDS011;56411;52.964;10.540;2023-12-20T03:24:44;19.27;;;4.70;;
16101;SDS011;56411;52.964;10.540;2023-12-20T03:27:11;16.80;;;5.13;;
16101;SDS011;56411;52.964;10.540;2023-12-20T03:29:38;20.33;;;4.57;;
16101;SDS011;56411;52.964;10.540;2023-12-20T03:32:07;18.30;;;5.30;;
16101;SDS011;56411;52.964;10.540;2023-12-20T03:34:34;16.23;;;4.70;;
16101;SDS011;56411;52.964;10.540;2023-12-20T03:37:01;17.30;;;4.50;;
16101;SDS011;56411;52.964;10.540;2023-12-20T03:39:28;12.80;;;4.30;;
16101;SDS011;56411;52.964;10.540;2023-12-20T03:41:56;15.90;;;4.73;;
16101;SDS011;56411;52.964;10.540;2023-12-20T03:44:23;20.87;;;4.57;;
16101;SDS011;56411;52.964;10.540;2023-12-20T03:46:50;17.73;;;4.50;;
16101;SDS011;56411;52.964;10.540;2023-12-20T03:49:18;23.03;;;5.57;;
16101;SDS011;56411;52.964;10.540;2023-12-20T03:51:45;25.03;;;4.90;;
16101;SDS011;56411;52.964;10.540;2023-12-20T03:54:12;16.33;;;4.43;;
16101;SDS011;56411;52.964;10.540;2023-12-20T03:56:39;17.97;;;4.40;;
16101;SDS011;56411;52.964;10.540;2023-12-20T03:59:06;13.53;;;4.80;;
16101;SDS011;56411;52.964;10.540;2023-12-20T04:01:33;19.93;;;4.63;;
16101;SDS011;56411;52.964;10.540;2023-12-20T04:04:01;15.67;;;4.40;;
16101;SDS011;56411;52.964;10.540;2023-12-20T04:06:29;13.23;;;4.13;;
16101;SDS011;56411;52.964;10.540;2023-12-20T04:08:56;19.67;;;4.47;;
16101;SDS011;56411;52.964;10.540;2023-12-20T04:11:23;14.37;;;4.40;;
16101;SDS011;56411;52.964;10.540;2023-12-20T04:13:50;22.30;;;5.40;;
16101;SDS011;56411;52.964;10.540;2023-12-20T04:16:17;15.70;;;4.27;;
16101;SDS011;56411;52.964;10.540;2023-12-20T04:18:44;14.97;;;4.40;;
16101;SDS011;56411;52.964;10.540;2023-12-20T04:21:11;16.73;;;4.47;;
16101;SDS011;56411;52.964;10.540;2023-12-20T04:23:40;14.50;;;4.03;;
16101;SDS011;56411;52.964;10.540;2023-12-20T04:26:07;13.73;;;4.43;;
16101;SDS011;56411;52.964;10.540;2023-12-20T04:28:34;16.07;;;4.10;;
16101;SDS011;56411;52.964;10.540;2023-12-20T04:31:01;16.07;;;4.07;;
16101;SDS011;56411;52.964;10.540;2023-12-20T04:33:28;18.40;;;4.30;;
16101;SDS011;56411;52.964;10.540;2023-12-20T04:35:55;15.87;;;4.17;;
16101;SDS011;56411;52.964;10.540;2023-12-20T04:38:22;15.13;;;4.40;;
16101;SDS011;56411;52.964;10.540;2023-12-20T04:40:51;18.57;;;4.67;;
16101;SDS011;56411;52.964;10.540;2023-12-20T04:43:18;13.90;;;4.67;;
16101;SDS011;56411;52.964;10.540;2023-12-20T04:45:45;21.37;;;5.30;;
16101;SDS011;56411;52.964;10.540;2023-12-20T04:48:12;17.23;;;5.20;;
16101;SDS011;56411;52.964;10.540;2023-12-20T04:50:39;17.30;;;5.00;;
16101;SDS011;56411;52.964;10.540;2023-12-20T04:53:06;15.00;;;4.53;;
16101;SDS011;56411;52.964;10.540;2023-12-20T04:55:33;19.00;;;4.53;;
16101;SDS011;56411;52.964;10.540;2023-12-20T04:58:02;17.43;;;5.10;;
16101;SDS011;56411;52.964;10.540;2023-12-20T05:00:29;14.93;;;5.37;;
16101;SDS011;56411;52.964;10.540;2023-12-20T05:02:56;19.73;;;6.77;;
16101;SDS011;56411;52.964;10.540;2023-12-20T05:05:23;15.60;;;5.60;;
16101;SDS011;56411;52.964;10.540;2023-12-20T05:07:50;19.20;;;5.67;;
16101;SDS011;56411;52.964;10.540;2023-12-20T05:10:18;20.93;;;6.27;;
16101;SDS011;56411;52.964;10.540;2023-12-20T05:12:45;21.93;;;5.97;;
16101;SDS011;56411;52.964;10.540;2023-12-20T05:15:13;16.60;;;6.07;;
16101;SDS011;56411;52.964;10.540;2023-12-20T05:17:41;15.80;;;5.23;;
16101;SDS011;56411;52.964;10.540;2023-12-20T05:20:08;18.87;;;5.90;;
16101;SDS011;56411;52.964;10.540;2023-12-20T05:22:35;19.03;;;5.70;;
16101;SDS011;56411;52.964;10.540;2023-12-20T05:25:03;19.67;;;6.03;;
16101;SDS011;56411;52.964;10.540;2023-12-20T05:27:31;25.93;;;6.93;;
16101;SDS011;56411;52.964;10.540;2023-12-20T05:29:58;21.13;;;6.20;;
16101;SDS011;56411;52.964;10.540;2023-12-20T05:32:26;20.30;;;6.90;;
16101;SDS011;56411;52.964;10.540;2023-12-20T05:34:53;20.43;;;6.20;;
16101;SDS011;56411;52.964;10.540;2023-12-20T05:37:21;18.10;;;7.17;;
16101;SDS011;56411;52.964;10.540;2023-12-20T05:39:48;18.70;;;6.47;;
16101;SDS011;56411;52.964;10.540;2023-12-20T05:42:15;14.87;;;6.17;;
16101;SDS011;56411;52.964;10.540;2023-12-20T05:44:42;18.23;;;6.40;;
16101;SDS011;56411;52.964;10.540;2023-12-20T05:47:09;21.77;;;6.80;;
16101;SDS011;56411;52.964;10.540;2023-12-20T05:49:37;16.70;;;6.37;;
16101;SDS011;56411;52.964;10.540;2023-12-20T05:52:05;22.37;;;6.70;;
16101;SDS011;56411;52.964;10.540;2023-12-20T05:54:32;18.43;;;6.00;;
16101;SDS011;56411;52.964;10.540;2023-12-20T05:56:59;17.60;;;6.03;;
16101;SDS011;56411;52.964;10.540;2023-12-20T05:59:26;18.53;;;6.70;;
16101;SDS011;56411;52.964;10.540;2023-12-20T06:01:55;15.80;;;5.30;;
16101;SDS011;56411;52.964;10.540;2023-12-20T06:04:22;17.93;;;5.83;;
16101;SDS011;56411;52.964;10.540;2023-12-20T06:06:51;17.43;;;6.00;;
16101;SDS011;56411;52.964;10.540;2023-12-20T06:09:18;19.90;;;6.20;;
16101;SDS011;56411;52.964;10.540;2023-12-20T06:11:45;17.70;;;5.80;;
16101;SDS011;56411;52.964;10.540;2023-12-20T06:14:12;22.83;;;6.00;;
16101;SDS011;56411;52.964;10.540;2023-12-20T06:16:39;20.90;;;5.90;;
16101;SDS011;56411;52.964;10.540;2023-12-20T06:19:06;21.23;;;6.30;;
16101;SDS011;56411;52.964;10.540;2023-12-20T06:21:33;21.90;;;6.10;;
16101;SDS011;56411;52.964;10.540;2023-12-20T06:24:02;15.87;;;4.80;;
16101;SDS011;56411;52.964;10.540;2023-12-20T06:26:29;17.63;;;5.73;;
16101;SDS011;56411;52.964;10.540;2023-12-20T06:28:57;19.17;;;5.63;;
16101;SDS011;56411;52.964;10.540;2023-12-20T06:31:24;18.90;;;5.47;;
16101;SDS011;56411;52.964;10.540;2023-12-20T06:33:51;15.60;;;4.50;;
16101;SDS011;56411;52.964;10.540;2023-12-20T06:36:22;18.97;;;4.77;;
16101;SDS011;56411;52.964;10.540;2023-12-20T06:38:49;20.07;;;5.13;;
16101;SDS011;56411;52.964;10.540;2023-12-20T06:41:18;21.23;;;5.50;;
16101;SDS011;56411;52.964;10.540;2023-12-20T06:43:45;18.93;;;5.37;;
16101;SDS011;56411;52.964;10.540;2023-12-20T06:46:12;17.93;;;5.57;;
16101;SDS011;56411;52.964;10.540;2023-12-20T06:48:39;23.77;;;5.83;;
16101;SDS011;56411;52.964;10.540;2023-12-20T06:51:10;20.67;;;5.60;;
16101;SDS011;56411;52.964;10.540;2023-12-20T06:53:38;23.13;;;6.43;;
16101;SDS011;56411;52.964;10.540;2023-12-20T06:56:05;18.73;;;5.70;;
16101;SDS011;56411;52.964;10.540;2023-12-20T06:58:35;20.30;;;5.00;;
16101;SDS011;56411;52.964;10.540;2023-12-20T07:01:03;18.80;;;5.03;;
16101;SDS011;56411;52.964;10.540;2023-12-20T07:03:30;20.30;;;4.90;;
16101;SDS011;56411;52.964;10.540;2023-12-20T07:05:57;21.33;;;5.50;;
16101;SDS011;56411;52.964;10.540;2023-12-20T07:08:24;19.73;;;5.33;;
16101;SDS011;56411;52.964;10.540;2023-12-20T07:10:51;16.77;;;4.83;;
16101;SDS011;56411;52.964;10.540;2023-12-20T07:13:19;21.93;;;5.90;;
16101;SDS011;56411;52.964;10.540;2023-12-20T07:15:48;18.57;;;5.37;;
16101;SDS011;56411;52.964;10.540;2023-12-20T07:18:15;19.13;;;4.97;;
16101;SDS011;56411;52.964;10.540;2023-12-20T07:20:42;17.73;;;5.40;;
16101;SDS011;56411;52.964;10.540;2023-12-20T07:23:09;17.10;;;4.70;;
16101;SDS011;56411;52.964;10.540;2023-12-20T07:25:36;16.03;;;4.97;;
16101;SDS011;56411;52.964;10.540;2023-12-20T07:28:04;17.87;;;4.73;;
16101;SDS011;56411;52.964;10.540;2023-12-20T07:30:31;18.37;;;5.10;;
16101;SDS011;56411;52.964;10.540;2023-12-20T07:32:59;17.83;;;4.90;;
16101;SDS011;56411;52.964;10.540;2023-12-20T07:35:27;16.47;;;5.33;;
16101;SDS011;56411;52.964;10.540;2023-12-20T07:37:54;18.70;;;5.47;;
16101;SDS011;56411;52.964;10.540;2023-12-20T07:40:21;17.67;;;4.87;;
16101;SDS011;56411;52.964;10.540;2023-12-20T07:42:49;14.37;;;4.10;;
16101;SDS011;56411;52.964;10.540;2023-12-20T07:45:16;23.30;;;5.30;;
16101;SDS011;56411;52.964;10.540;2023-12-20T07:47:43;18.50;;;5.17;;
16101;SDS011;56411;52.964;10.540;2023-12-20T07:50:11;19.43;;;5.23;;
16101;SDS011;56411;52.964;10.540;2023-12-20T07:52:39;17.73;;;5.20;;
16101;SDS011;56411;52.964;10.540;2023-12-20T07:55:06;23.63;;;5.67;;
16101;SDS011;56411;52.964;10.540;2023-12-20T07:57:34;16.70;;;5.83;;
16101;SDS011;56411;52.964;10.540;2023-12-20T08:00:01;23.60;;;6.30;;
16101;SDS011;56411;52.964;10.540;2023-12-20T08:02:29;21.93;;;6.20;;
16101;SDS011;56411;52.964;10.540;2023-12-20T08:04:56;18.10;;;4.90;;
16101;SDS011;56411;52.964;10.540;2023-12-20T08:07:24;19.37;;;5.40;;
16101;SDS011;56411;52.964;10.540;2023-12-20T08:09:52;20.33;;;5.40;;
16101;SDS011;56411;52.964;10.540;2023-12-20T08:12:20;17.40;;;5.13;;
16101;SDS011;56411;52.964;10.540;2023-12-20T08:14:47;19.13;;;5.60;;
16101;SDS011;56411;52.964;10.540;2023-12-20T08:17:14;19.10;;;5.27;;
16101;SDS011;56411;52.964;10.540;2023-12-20T08:19:44;20.60;;;5.57;;
16101;SDS011;56411;52.964;10.540;2023-12-20T08:22:11;18.33;;;5.50;;
16101;SDS011;56411;52.964;10.540;2023-12-20T08:24:40;21.60;;;5.37;;
16101;SDS011;56411;52.964;10.540;2023-12-20T08:27:07;20.03;;;5.90;;
16101;SDS011;56411;52.964;10.540;2023-12-20T08:29:34;21.47;;;5.70;;
16101;SDS011;56411;52.964;10.540;2023-12-20T08:32:02;16.17;;;5.20;;
16101;SDS011;56411;52.964;10.540;2023-12-20T08:34:29;23.57;;;5.53;;
16101;SDS011;56411;52.964;10.540;2023-12-20T08:36:56;17.10;;;5.00;;
16101;SDS011;56411;52.964;10.540;2023-12-20T08:39:23;18.47;;;5.80;;
16101;SDS011;56411;52.964;10.540;2023-12-20T08:41:52;21.50;;;5.60;;
16101;SDS011;56411;52.964;10.540;2023-12-20T08:44:19;19.60;;;5.53;;
16101;SDS011;56411;52.964;10.540;2023-12-20T08:46:47;21.40;;;5.00;;
16101;SDS011;56411;52.964;10.540;2023-12-20T08:49:14;16.27;;;4.67;;
16101;SDS011;56411;52.964;10.540;2023-12-20T08:51:42;20.07;;;4.70;;
16101;SDS011;56411;52.964;10.540;2023-12-20T08:54:09;21.47;;;4.70;;
16101;SDS011;56411;52.964;10.540;2023-12-20T08:56:38;16.87;;;4.50;;
16101;SDS011;56411;52.964;10.540;2023-12-20T08:59:06;15.80;;;4.70;;
16101;SDS011;56411;52.964;10.540;2023-12-20T09:01:34;19.97;;;5.00;;
16101;SDS011;56411;52.964;10.540;2023-12-20T09:04:01;22.67;;;5.63;;
16101;SDS011;56411;52.964;10.540;2023-12-20T09:06:28;17.73;;;4.60;;
16101;SDS011;56411;52.964;10.540;2023-12-20T09:08:55;18.53;;;5.00;;
16101;SDS011;56411;52.964;10.540;2023-12-20T09:11:22;16.53;;;4.77;;
16101;SDS011;56411;52.964;10.540;2023-12-20T09:13:50;18.63;;;4.80;;
16101;SDS011;56411;52.964;10.540;2023-12-20T09:16:18;19.40;;;4.80;;
16101;SDS011;56411;52.964;10.540;2023-12-20T09:18:45;18.40;;;4.77;;
16101;SDS011;56411;52.964;10.540;2023-12-20T09:21:13;23.47;;;5.10;;
16101;SDS011;56411;52.964;10.540;2023-12-20T09:23:40;18.97;;;5.27;;
16101;SDS011;56411;52.964;10.540;2023-12-20T09:26:07;23.53;;;5.43;;
16101;SDS011;56411;52.964;10.540;2023-12-20T09:28:34;17.23;;;4.73;;
16101;SDS011;56411;52.964;10.540;2023-12-20T09:31:03;18.63;;;4.50;;
16101;SDS011;56411;52.964;10.540;2023-12-20T09:33:33;18.77;;;5.03;;
16101;SDS011;56411;52.964;10.540;2023-12-20T09:36:00;16.97;;;5.03;;
16101;SDS011;56411;52.964;10.540;2023-12-20T09:38:27;18.30;;;5.03;;
16101;SDS011;56411;52.964;10.540;2023-12-20T09:40:55;14.90;;;4.00;;
16101;SDS011;56411;52.964;10.540;2023-12-20T09:43:23;15.93;;;4.43;;
16101;SDS011;56411;52.964;10.540;2023-12-20T09:45:53;16.70;;;4.53;;
16101;SDS011;56411;52.964;10.540;2023-12-20T09:48:24;15.67;;;4.50;;
16101;SDS011;56411;52.964;10.540;2023-12-20T09:50:55;15.27;;;5.13;;
16101;SDS011;56411;52.964;10.540;2023-12-20T09:53:22;17.07;;;4.50;;
16101;SDS011;56411;52.964;10.540;2023-12-20T09:55:55;17.63;;;4.03;;
16101;SDS011;56411;52.964;10.540;2023-12-20T09:58:24;14.83;;;4.70;;
16101;SDS011;56411;52.964;10.540;2023-12-20T10:00:51;13.60;;;3.87;;
16101;SDS011;56411;52.964;10.540;2023-12-20T10:03:21;14.73;;;4.17;;
16101;SDS011;56411;52.964;10.540;2023-12-20T10:05:52;19.30;;;4.60;;
16101;SDS011;56411;52.964;10.540;2023-12-20T10:08:22;16.33;;;4.80;;
16101;SDS011;56411;52.964;10.540;2023-12-20T10:10:50;18.50;;;5.37;;
16101;SDS011;56411;52.964;10.540;2023-12-20T10:13:17;19.47;;;4.87;;
16101;SDS011;56411;52.964;10.540;2023-12-20T10:15:44;15.90;;;4.97;;
16101;SDS011;56411;52.964;10.540;2023-12-20T10:18:12;21.33;;;5.70;;
16101;SDS011;56411;52.964;10.540;2023-12-20T10:20:40;21.37;;;5.93;;
16101;SDS011;56411;52.964;10.540;2023-12-20T10:23:08;19.27;;;5.60;;
16101;SDS011;56411;52.964;10.540;2023-12-20T10:25:37;24.23;;;5.87;;
16101;SDS011;56411;52.964;10.540;2023-12-20T10:28:10;17.30;;;5.33;;
16101;SDS011;56411;52.964;10.540;2023-12-20T10:30:39;19.60;;;5.17;;
16101;SDS011;56411;52.964;10.540;2023-12-20T10:33:06;16.73;;;5.00;;
16101;SDS011;56411;52.964;10.540;2023-12-20T10:35:34;18.43;;;4.83;;
16101;SDS011;56411;52.964;10.540;2023-12-20T10:38:03;21.10;;;4.87;;
16101;SDS011;56411;52.964;10.540;2023-12-20T10:40:31;15.47;;;4.33;;
16101;SDS011;56411;52.964;10.540;2023-12-20T10:43:04;16.53;;;4.40;;
16101;SDS011;56411;52.964;10.540;2023-12-20T10:45:31;13.20;;;3.13;;
16101;SDS011;56411;52.964;10.540;2023-12-20T10:47:58;7.13;;;2.20;;
16101;SDS011;56411;52.964;10.540;2023-12-20T10:50:28;6.83;;;2.10;;
16101;SDS011;56411;52.964;10.540;2023-12-20T10:52:55;3.93;;;1.67;;
16101;SDS011;56411;52.964;10.540;2023-12-20T10:55:22;6.13;;;1.60;;
16101;SDS011;56411;52.964;10.540;2023-12-20T10:57:49;2.83;;;1.33;;
16101;SDS011;56411;52.964;10.540;2023-12-20T11:00:19;4.77;;;1.33;;
16101;SDS011;56411;52.964;10.540;2023-12-20T11:02:49;3.17;;;1.37;;
16101;SDS011;56411;52.964;10.540;2023-12-20T11:05:20;3.53;;;1.60;;
16101;SDS011;56411;52.964;10.540;2023-12-20T11:07:58;3.73;;;1.17;;
16101;SDS011;56411;52.964;10.540;2023-12-20T11:10:36;3.83;;;1.37;;
16101;SDS011;56411;52.964;10.540;2023-12-20T11:13:20;1.63;;;1.10;;
16101;SDS011;56411;52.964;10.540;2023-12-20T11:15:50;4.47;;;1.27;;
16101;SDS011;56411;52.964;10.540;2023-12-20T11:18:17;3.80;;;1.13;;
16101;SDS011;56411;52.964;10.540;2023-12-20T11:20:44;3.33;;;1.03;;
16101;SDS011;56411;52.964;10.540;2023-12-20T11:23:12;3.57;;;1.30;;
16101;SDS011;56411;52.964;10.540;2023-12-20T11:25:47;6.17;;;1.40;;
16101;SDS011;56411;52.964;10.540;2023-12-20T11:28:15;4.70;;;1.60;;
16101;SDS011;56411;52.964;10.540;2023-12-20T11:30:47;6.00;;;1.30;;
16101;SDS011;56411;52.964;10.540;2023-12-20T11:33:17;2.97;;;1.33;;
16101;SDS011;56411;52.964;10.540;2023-12-20T11:35:48;6.37;;;1.47;;
16101;SDS011;56411;52.964;10.540;2023-12-20T11:38:15;4.53;;;1.23;;
16101;SDS011;56411;52.964;10.540;2023-12-20T11:40:42;4.27;;;1.47;;
16101;SDS011;56411;52.964;10.540;2023-12-20T11:43:10;4.73;;;1.23;;
16101;SDS011;56411;52.964;10.540;2023-12-20T11:45:37;5.50;;;1.63;;
16101;SDS011;56411;52.964;10.540;2023-12-20T11:48:04;5.03;;;1.60;;
16101;SDS011;56411;52.964;10.540;2023-12-20T11:50:35;5.07;;;1.43;;
16101;SDS011;56411;52.964;10.540;2023-12-20T11:53:02;4.40;;;1.50;;
16101;SDS011;56411;52.964;10.540;2023-12-20T11:55:30;3.10;;;1.30;;
16101;SDS011;56411;52.964;10.540;2023-12-20T11:57:57;3.73;;;1.50;;
16101;SDS011;56411;52.964;10.540;2023-12-20T12:00:24;3.10;;;1.30;;
16101;SDS011;56411;52.964;10.540;2023-12-20T12:02:55;3.83;;;1.43;;
16101;SDS011;56411;52.964;10.540;2023-12-20T12:05:23;5.10;;;1.70;;
16101;SDS011;56411;52.964;10.540;2023-12-20T12:07:52;5.73;;;1.97;;
16101;SDS011;56411;52.964;10.540;2023-12-20T12:10:19;6.23;;;1.50;;
16101;SDS011;56411;52.964;10.540;2023-12-20T12:12:47;4.37;;;2.07;;
16101;SDS011;56411;52.964;10.540;2023-12-20T12:15:14;3.77;;;1.57;;
16101;SDS011;56411;52.964;10.540;2023-12-20T12:17:41;5.40;;;1.57;;
16101;SDS011;56411;52.964;10.540;2023-12-20T12:20:09;3.60;;;1.43;;
16101;SDS011;56411;52.964;10.540;2023-12-20T12:22:36;3.10;;;1.47;;
16101;SDS011;56411;52.964;10.540;2023-12-20T12:25:12;3.83;;;1.57;;
16101;SDS011;56411;52.964;10.540;2023-12-20T12:27:40;4.37;;;1.60;;
16101;SDS011;56411;52.964;10.540;2023-12-20T12:30:08;5.40;;;1.47;;
16101;SDS011;56411;52.964;10.540;2023-12-20T12:32:38;6.23;;;1.80;;
16101;SDS011;56411;52.964;10.540;2023-12-20T12:35:06;5.50;;;1.37;;
16101;SDS011;56411;52.964;10.540;2023-12-20T12:37:36;4.90;;;1.87;;
16101;SDS011;56411;52.964;10.540;2023-12-20T12:40:05;5.97;;;1.67;;
16101;SDS011;56411;52.964;10.540;2023-12-20T12:42:34;4.50;;;1.67;;
16101;SDS011;56411;52.964;10.540;2023-12-20T12:45:01;6.97;;;1.60;;
16101;SDS011;56411;52.964;10.540;2023-12-20T12:47:28;5.83;;;1.77;;
16101;SDS011;56411;52.964;10.540;2023-12-20T12:49:56;7.10;;;2.27;;
16101;SDS011;56411;52.964;10.540;2023-12-20T12:52:23;6.93;;;1.70;;
16101;SDS011;56411;52.964;10.540;2023-12-20T12:54:51;7.23;;;1.90;;
16101;SDS011;56411;52.964;10.540;2023-12-20T12:57:19;7.13;;;1.90;;
16101;SDS011;56411;52.964;10.540;2023-12-20T12:59:48;8.17;;;2.07;;
16101;SDS011;56411;52.964;10.540;2023-12-20T13:02:16;8.63;;;2.00;;
16101;SDS011;56411;52.964;10.540;2023-12-20T13:04:43;6.70;;;2.00;;
16101;SDS011;56411;52.964;10.540;2023-12-20T13:07:11;8.97;;;2.30;;
16101;SDS011;56411;52.964;10.540;2023-12-20T13:09:39;8.80;;;2.10;;
16101;SDS011;56411;52.964;10.540;2023-12-20T13:12:07;7.97;;;2.10;;
16101;SDS011;56411;52.964;10.540;2023-12-20T13:14:35;7.53;;;2.20;;
16101;SDS011;56411;52.964;10.540;2023-12-20T13:17:04;9.13;;;2.10;;
16101;SDS011;56411;52.964;10.540;2023-12-20T13:19:31;9.70;;;2.20;;
16101;SDS011;56411;52.964;10.540;2023-12-20T13:21:58;8.43;;;2.43;;
16101;SDS011;56411;52.964;10.540;2023-12-20T13:24:26;11.60;;;2.40;;
16101;SDS011;56411;52.964;10.540;2023-12-20T13:26:54;10.97;;;2.70;;
16101;SDS011;56411;52.964;10.540;2023-12-20T13:29:21;10.40;;;2.40;;
16101;SDS011;56411;52.964;10.540;2023-12-20T13:31:48;8.50;;;2.70;;
16101;SDS011;56411;52.964;10.540;2023-12-20T13:34:17;11.13;;;2.43;;
16101;SDS011;56411;52.964;10.540;2023-12-20T13:36:45;14.17;;;2.70;;
16101;SDS011;56411;52.964;10.540;2023-12-20T13:39:12;10.83;;;2.40;;
16101;SDS011;56411;52.964;10.540;2023-12-20T13:41:40;14.03;;;3.00;;
16101;SDS011;56411;52.964;10.540;2023-12-20T13:44:07;12.33;;;2.40;;
16101;SDS011;56411;52.964;10.540;2023-12-20T13:46:34;11.03;;;2.43;;
16101;SDS011;56411;52.964;10.540;2023-12-20T13:49:02;8.97;;;2.20;;
16101;SDS011;56411;52.964;10.540;2023-12-20T13:51:32;9.10;;;2.03;;
16101;SDS011;56411;52.964;10.540;2023-12-20T13:53:59;15.37;;;2.43;;
16101;SDS011;56411;52.964;10.540;2023-12-20T13:56:26;12.20;;;2.20;;
16101;SDS011;56411;52.964;10.540;2023-12-20T13:58:53;10.57;;;2.37;;
16101;SDS011;56411;52.964;10.540;2023-12-20T14:01:20;15.53;;;2.43;;
16101;SDS011;56411;52.964;10.540;2023-12-20T14:03:47;8.37;;;2.10;;
16101;SDS011;56411;52.964;10.540;2023-12-20T14:06:15;12.83;;;2.00;;
16101;SDS011;56411;52.964;10.540;2023-12-20T14:08:44;12.90;;;2.97;;
16101;SDS011;56411;52.964;10.540;2023-12-20T14:11:11;10.67;;;2.27;;
16101;SDS011;56411;52.964;10.540;2023-12-20T14:13:40;16.73;;;3.03;;
16101;SDS011;56411;52.964;10.540;2023-12-20T14:16:08;13.93;;;2.80;;
16101;SDS011;56411;52.964;10.540;2023-12-20T14:18:35;14.97;;;3.17;;
16101;SDS011;56411;52.964;10.540;2023-12-20T14:21:03;11.50;;;2.30;;
16101;SDS011;56411;52.964;10.540;2023-12-20T14:23:31;10.93;;;2.63;;
16101;SDS011;56411;52.964;10.540;2023-12-20T14:26:00;12.03;;;2.73;;
16101;SDS011;56411;52.964;10.540;2023-12-20T14:28:27;11.10;;;2.60;;
16101;SDS011;56411;52.964;10.540;2023-12-20T14:30:54;19.30;;;3.80;;